Time;durP1;ratioP1;P1;durP2;ratioP2;P2;SDS_P1;SDS_P2;PMS_P1;PMS_P2;Temp;Humidity;BMP_temperature;BMP_pressure;BME280_temperature;BME280_humidity;BME280_pressure;Samples;Min_cycle;Max_cycle;Signal;HPM_P1;HPM_P2
2024/01/21 00:01:07;;;;;;;3.87;3.40;;;3.00;66.40;;;4.43;45.98;102442.69;3081080;46;20468;-73
2024/01/21 00:03:35;;;;;;;5.87;3.63;;;3.00;66.30;;;4.44;45.56;102439.16;3080803;46;20489;-72
2024/01/21 00:06:04;;;;;;;5.20;3.57;;;3.00;66.00;;;4.42;45.59;102431.41;3081010;46;20441;-72
2024/01/21 00:08:32;;;;;;;5.33;3.67;;;3.00;65.60;;;4.42;45.38;102425.38;3080538;46;20466;-72
2024/01/21 00:11:01;;;;;;;4.27;3.07;;;3.00;65.30;;;4.43;45.10;102421.84;3081095;46;20443;-72
2024/01/21 00:13:29;;;;;;;5.53;3.70;;;3.00;65.00;;;4.37;44.30;102422.22;3080917;46;20499;-72
2024/01/21 00:15:58;;;;;;;5.90;3.40;;;3.00;63.50;;;4.36;45.06;102420.53;3080927;46;20466;-72
2024/01/21 00:18:26;;;;;;;4.97;3.30;;;3.00;64.00;;;4.37;44.76;102422.22;3080160;46;20464;-73
2024/01/21 00:20:55;;;;;;;4.27;3.43;;;3.00;63.70;;;4.37;44.25;102423.06;3081138;46;20556;-72
2024/01/21 00:23:23;;;;;;;8.33;4.13;;;3.00;63.10;;;4.42;44.52;102414.97;3080629;46;20458;-72
2024/01/21 00:25:52;;;;;;;4.33;3.40;;;3.00;63.60;;;4.47;44.42;102415.53;3080645;46;20704;-73
2024/01/21 00:28:20;;;;;;;5.10;3.43;;;3.00;63.50;;;4.49;44.60;102414.47;3080184;46;20443;-72
2024/01/21 00:30:48;;;;;;;6.80;3.80;;;3.00;64.10;;;4.53;44.69;102407.31;3080579;46;20476;-72
2024/01/21 00:33:17;;;;;;;6.57;4.63;;;3.00;64.50;;;4.55;44.61;102401.06;3080803;46;20511;-73
2024/01/21 00:35:45;;;;;;;6.87;3.80;;;3.00;64.40;;;4.53;44.34;102402.09;3080500;46;21039;-72
2024/01/21 00:38:14;;;;;;;6.27;3.20;;;3.10;63.60;;;4.47;43.72;102397.28;3080106;46;20449;-72
2024/01/21 00:40:42;;;;;;;5.57;4.33;;;3.00;61.80;;;4.51;43.71;102388.31;3080542;46;20465;-72
2024/01/21 00:43:10;;;;;;;5.07;3.57;;;3.10;62.50;;;4.54;43.72;102393.38;3081800;46;21133;-72
2024/01/21 00:45:39;;;;;;;5.43;3.53;;;3.10;62.40;;;4.52;43.27;102390.81;3082785;46;20950;-72
2024/01/21 00:48:07;;;;;;;4.33;3.23;;;3.10;61.50;;;4.56;43.72;102396.72;3082633;46;20446;-72
2024/01/21 00:50:36;;;;;;;5.27;3.73;;;3.10;62.80;;;4.52;42.65;102392.59;3083090;46;20622;-72
2024/01/21 00:53:05;;;;;;;6.07;3.27;;;3.10;60.70;;;4.49;42.65;102385.78;3082817;46;20423;-72
2024/01/21 00:55:33;;;;;;;4.87;3.30;;;3.10;60.20;;;4.43;42.38;102386.19;3082698;46;20436;-72
2024/01/21 00:58:02;;;;;;;6.23;3.40;;;3.10;59.30;;;4.44;42.61;102387.03;3082095;46;20449;-72
2024/01/21 01:00:30;;;;;;;4.47;2.93;;;3.20;59.40;;;4.49;42.81;102374.56;3082873;46;20433;-73
2024/01/21 01:02:59;;;;;;;5.93;3.50;;;3.20;59.50;;;4.52;42.48;102364.75;3082820;46;20532;-72
2024/01/21 01:05:29;;;;;;;6.33;3.13;;;3.20;59.70;;;4.58;42.88;102363.56;3082701;46;20437;-72
2024/01/21 01:07:57;;;;;;;4.47;3.40;;;3.20;60.00;;;4.62;42.70;102357.22;3082441;46;20457;-72
2024/01/21 01:10:26;;;;;;;4.57;3.43;;;3.20;59.70;;;4.63;42.37;102357.13;3082800;46;20442;-73
2024/01/21 01:12:55;;;;;;;4.30;3.10;;;3.20;59.50;;;4.59;41.97;102360.00;3082745;46;20439;-72
2024/01/21 01:15:24;;;;;;;6.67;3.20;;;3.20;58.80;;;4.57;41.90;102354.03;3082876;46;20423;-72
2024/01/21 01:17:52;;;;;;;3.00;2.23;;;3.20;58.60;;;4.55;41.72;102358.53;3082242;46;20955;-72
2024/01/21 01:20:21;;;;;;;3.70;2.60;;;3.20;58.00;;;4.46;41.02;102351.28;3082699;46;20987;-72
2024/01/21 01:22:49;;;;;;;3.80;2.83;;;3.20;57.10;;;4.44;41.11;102350.53;3082553;46;20466;-73
2024/01/21 01:25:17;;;;;;;4.47;2.93;;;3.20;56.80;;;4.45;41.54;102347.84;3082520;46;20600;-71
2024/01/21 01:27:46;;;;;;;4.23;2.93;;;3.20;56.90;;;4.41;41.07;102342.91;3082315;46;21140;-72
2024/01/21 01:30:14;;;;;;;5.87;3.00;;;3.20;56.40;;;4.40;40.78;102333.41;3082668;46;20466;-72
2024/01/21 01:32:43;;;;;;;4.70;2.60;;;3.20;56.20;;;4.40;40.69;102326.44;3082381;46;20442;-72
2024/01/21 01:35:11;;;;;;;4.47;3.07;;;3.20;56.20;;;4.46;41.12;102333.03;3082554;46;20442;-72
2024/01/21 01:37:40;;;;;;;3.97;2.80;;;3.20;56.50;;;4.44;40.89;102324.47;3082296;46;20621;-72
2024/01/21 01:40:09;;;;;;;3.63;2.53;;;3.20;56.20;;;4.46;40.75;102323.44;3082092;46;20438;-72
2024/01/21 01:42:37;;;;;;;3.03;2.20;;;3.20;55.80;;;4.42;40.51;102324.56;3082399;46;20431;-73
2024/01/21 01:45:06;;;;;;;3.93;2.43;;;3.20;55.30;;;4.36;40.29;102321.50;3082539;46;20434;-73
2024/01/21 01:47:34;;;;;;;3.27;2.73;;;3.20;54.60;;;4.38;40.25;102322.25;3081863;46;20505;-72
2024/01/21 01:50:03;;;;;;;3.77;2.40;;;3.20;54.70;;;4.39;39.93;102313.50;3082159;46;20438;-72
2024/01/21 01:52:32;;;;;;;3.80;2.33;;;3.20;54.20;;;4.48;40.41;102315.53;3082284;46;20434;-72
2024/01/21 01:55:01;;;;;;;3.07;2.43;;;3.20;54.80;;;4.54;39.84;102320.38;3082408;46;20455;-72
2024/01/21 01:57:31;;;;;;;3.73;2.53;;;3.20;54.20;;;4.55;39.58;102315.06;3081365;46;20605;-72
2024/01/21 01:59:59;;;;;;;3.13;2.67;;;3.20;53.80;;;4.66;39.93;102315.19;3082005;46;21019;-73
2024/01/21 02:02:28;;;;;;;4.37;2.70;;;3.20;54.60;;;4.73;39.69;102305.25;3082205;46;20434;-72
2024/01/21 02:05:03;;;;;;;5.00;2.63;;;3.30;54.60;;;4.74;39.53;102312.09;3082092;46;20456;-73
2024/01/21 02:07:31;;;;;;;3.80;2.80;;;3.30;53.90;;;4.77;39.31;102317.13;3081835;46;20443;-72
2024/01/21 02:10:01;;;;;;;6.67;3.33;;;3.30;53.80;;;4.79;39.25;102315.25;3081877;46;21044;-72
2024/01/21 02:12:30;;;;;;;4.00;2.47;;;3.30;53.80;;;4.74;39.08;102312.09;3081997;46;20544;-72
2024/01/21 02:14:59;;;;;;;4.67;2.93;;;3.40;53.40;;;4.74;39.01;102305.13;3082209;46;20445;-72
2024/01/21 02:17:27;;;;;;;3.70;2.50;;;3.40;53.30;;;4.74;39.17;102302.53;3081681;46;20449;-72
2024/01/21 02:19:56;;;;;;;3.50;2.77;;;3.40;53.30;;;4.76;39.07;102295.44;3082319;46;20557;-72
2024/01/21 02:22:26;;;;;;;5.17;2.70;;;3.40;53.30;;;4.77;39.24;102291.91;3082226;46;20511;-72
2024/01/21 02:24:54;;;;;;;4.07;3.10;;;3.40;53.10;;;4.79;39.16;102292.63;3082155;46;20431;-72
2024/01/21 02:27:23;;;;;;;4.10;3.10;;;3.40;53.20;;;4.85;39.37;102287.97;3081716;46;20455;-72
2024/01/21 02:29:52;;;;;;;4.07;2.77;;;3.40;53.70;;;4.85;39.36;102273.13;3081808;46;20528;-72
2024/01/21 02:32:20;;;;;;;3.07;2.07;;;3.40;53.80;;;4.85;39.47;102270.50;3081816;46;20438;-73
2024/01/21 02:34:49;;;;;;;5.23;2.73;;;3.40;53.80;;;4.85;39.68;102265.28;3081721;46;20463;-72
2024/01/21 02:37:17;;;;;;;3.80;2.87;;;3.40;54.20;;;4.86;39.67;102261.78;3081282;46;20510;-72
2024/01/21 02:39:45;;;;;;;3.77;2.87;;;3.40;54.50;;;4.82;39.71;102258.50;3081880;46;20523;-73
2024/01/21 02:42:14;;;;;;;4.13;2.80;;;3.40;54.20;;;4.84;39.67;102261.03;3082060;46;20427;-72
2024/01/21 02:44:42;;;;;;;3.73;2.60;;;3.40;54.50;;;4.81;39.60;102248.19;3081884;46;20529;-72
2024/01/21 02:47:11;;;;;;;5.17;3.27;;;3.40;54.20;;;4.82;39.76;102250.69;3081802;46;20443;-72
2024/01/21 02:49:39;;;;;;;4.47;2.73;;;3.40;54.60;;;4.81;39.73;102245.56;3081825;46;20522;-72
2024/01/21 02:52:08;;;;;;;4.30;2.93;;;3.40;54.20;;;4.82;39.56;102236.84;3081741;46;20478;-72
2024/01/21 02:54:36;;;;;;;6.57;2.70;;;3.30;54.40;;;4.83;40.36;102235.88;3081819;46;21045;-72
2024/01/21 02:57:05;;;;;;;4.53;2.60;;;3.30;55.00;;;4.81;39.89;102235.16;3081310;46;20999;-73
2024/01/21 02:59:33;;;;;;;4.20;2.80;;;3.30;55.00;;;4.79;40.17;102231.81;3081372;46;21083;-72
2024/01/21 03:02:01;;;;;;;4.40;3.47;;;3.30;55.20;;;4.77;40.30;102228.47;3081570;46;20423;-72
2024/01/21 03:04:30;;;;;;;4.30;3.33;;;3.30;55.40;;;4.73;40.67;102237.44;3081077;46;20434;-73
2024/01/21 03:06:58;;;;;;;5.47;3.17;;;3.30;55.50;;;4.68;40.62;102231.69;3080800;46;20430;-72
2024/01/21 03:09:27;;;;;;;4.27;3.27;;;3.20;55.50;;;4.66;40.68;102216.13;3081063;46;20455;-74
2024/01/21 03:11:56;;;;;;;4.70;3.07;;;3.20;55.70;;;4.67;40.92;102214.34;3081698;46;20427;-72
2024/01/21 03:14:24;;;;;;;4.40;3.17;;;3.20;56.10;;;4.69;40.93;102208.09;3081607;46;20434;-72
2024/01/21 03:16:53;;;;;;;4.93;3.50;;;3.20;56.50;;;4.69;41.08;102204.66;3081145;46;20427;-72
2024/01/21 03:19:21;;;;;;;5.60;3.57;;;3.20;56.40;;;4.69;40.90;102194.22;3081163;46;20593;-73
2024/01/21 03:21:49;;;;;;;5.30;3.63;;;3.20;56.60;;;4.69;41.36;102194.22;3081410;46;20461;-72
2024/01/21 03:24:18;;;;;;;8.33;4.77;;;3.20;56.70;;;4.71;41.20;102198.41;3081541;46;20445;-72
2024/01/21 03:26:46;;;;;;;5.63;4.30;;;3.10;56.90;;;4.72;41.09;102196.66;3081090;46;20563;-72
2024/01/21 03:29:15;;;;;;;5.97;4.30;;;3.10;56.90;;;4.72;41.07;102183.59;3081558;46;20459;-72
2024/01/21 03:31:43;;;;;;;7.13;4.17;;;3.10;56.60;;;4.69;41.05;102176.81;3081233;46;20468;-72
2024/01/21 03:34:11;;;;;;;6.00;3.90;;;3.20;56.60;;;4.72;41.37;102167.97;3081427;46;20572;-72
2024/01/21 03:36:40;;;;;;;7.13;4.30;;;3.20;57.00;;;4.73;41.06;102161.81;3081143;46;20492;-73
2024/01/21 03:39:09;;;;;;;7.10;4.03;;;3.20;57.00;;;4.74;40.93;102160.88;3080872;46;20470;-73
2024/01/21 03:41:37;;;;;;;6.83;4.50;;;3.20;56.70;;;4.72;40.79;102157.53;3081295;46;20450;-71
2024/01/21 03:44:06;;;;;;;7.83;4.50;;;3.20;56.30;;;4.70;40.81;102155.03;3081202;46;20590;-72
2024/01/21 03:46:34;;;;;;;5.57;4.63;;;3.20;56.10;;;4.66;40.26;102144.88;3081013;46;20518;-72
2024/01/21 03:49:02;;;;;;;10.03;5.17;;;3.20;55.40;;;4.62;40.31;102140.81;3081189;46;20991;-72
2024/01/21 03:51:31;;;;;;;7.23;5.10;;;3.20;55.30;;;4.53;40.26;102136.22;3081430;46;20458;-72
2024/01/21 03:53:59;;;;;;;7.40;4.80;;;3.10;54.80;;;4.53;40.27;102131.84;3080939;46;20423;-72
2024/01/21 03:56:27;;;;;;;8.03;5.00;;;3.10;55.50;;;4.56;40.81;102116.00;3080407;46;21029;-71
2024/01/21 03:58:56;;;;;;;8.90;5.40;;;3.10;55.40;;;4.58;40.61;102105.47;3080521;46;20446;-72
2024/01/21 04:01:24;;;;;;;8.87;5.50;;;3.10;55.50;;;4.58;40.88;102113.28;3080837;46;21088;-72
2024/01/21 04:03:53;;;;;;;7.07;4.80;;;3.10;55.70;;;4.56;40.53;102099.53;3080722;46;20470;-72
2024/01/21 04:06:22;;;;;;;7.77;4.83;;;3.10;55.70;;;4.53;40.84;102104.94;3081005;46;20550;-72
2024/01/21 04:08:50;;;;;;;6.40;4.53;;;3.10;55.70;;;4.44;41.03;102105.56;3080572;46;20560;-72
2024/01/21 04:11:19;;;;;;;7.87;5.07;;;3.10;55.50;;;4.45;41.02;102096.78;3080820;46;20517;-72
2024/01/21 04:13:47;;;;;;;8.20;5.27;;;3.00;55.80;;;4.44;41.08;102103.78;3081176;46;20484;-72
2024/01/21 04:16:15;;;;;;;9.53;5.47;;;3.10;55.90;;;4.41;41.01;102095.31;3080946;46;20459;-72
2024/01/21 04:18:44;;;;;;;6.50;4.60;;;3.00;55.70;;;4.35;40.78;102100.94;3082235;46;20532;-72
2024/01/21 04:21:12;;;;;;;9.13;5.27;;;3.00;55.50;;;4.34;40.88;102094.06;3083326;46;20542;-72
2024/01/21 04:23:41;;;;;;;7.83;5.30;;;3.00;55.60;;;4.30;40.96;102082.19;3083229;46;20441;-72
2024/01/21 04:26:09;;;;;;;10.23;5.70;;;3.00;55.70;;;4.26;41.22;102083.28;3083401;46;20504;-72
2024/01/21 04:28:37;;;;;;;7.27;5.10;;;3.00;55.50;;;4.23;41.31;102086.13;3082586;46;21051;-72
2024/01/21 04:31:06;;;;;;;6.63;4.53;;;2.90;55.60;;;4.24;41.35;102080.81;3083299;46;20940;-72
2024/01/21 04:33:36;;;;;;;7.80;5.40;;;2.90;55.70;;;4.25;41.13;102071.22;3082869;46;20583;-72
2024/01/21 04:36:06;;;;;;;7.30;4.83;;;2.90;55.80;;;4.19;40.86;102069.00;3083058;46;20465;-72
2024/01/21 04:38:34;;;;;;;9.07;5.23;;;2.90;56.20;;;4.23;41.50;102060.06;3082399;46;20470;-72
2024/01/21 04:41:03;;;;;;;8.60;5.60;;;2.90;56.00;;;4.23;41.06;102055.66;3083293;46;20551;-72
2024/01/21 04:43:31;;;;;;;8.67;4.40;;;2.90;55.90;;;4.21;41.14;102048.91;3083072;46;20463;-72
2024/01/21 04:46:00;;;;;;;7.30;4.87;;;2.90;55.90;;;4.23;41.63;102044.44;3083214;46;20431;-72
2024/01/21 04:48:28;;;;;;;7.93;5.00;;;2.90;56.00;;;4.25;41.36;102047.78;3082727;46;20448;-73
2024/01/21 04:50:57;;;;;;;6.63;4.97;;;2.90;56.10;;;4.24;41.29;102048.69;3083045;46;20489;-72
2024/01/21 04:53:25;;;;;;;10.07;4.50;;;2.90;55.90;;;4.22;40.94;102046.19;3083012;46;21002;-72
2024/01/21 04:55:56;;;;;;;7.43;4.33;;;2.90;55.80;;;4.24;41.41;102040.88;3083006;46;20466;-72
2024/01/21 04:58:25;;;;;;;6.87;4.60;;;2.90;55.80;;;4.27;40.99;102030.25;3082299;46;20450;-72
2024/01/21 05:00:53;;;;;;;9.10;5.27;;;2.90;55.80;;;4.31;41.35;102021.28;3082694;46;20434;-72
2024/01/21 05:03:22;;;;;;;5.57;3.80;;;2.90;56.10;;;4.33;41.28;102024.63;3082765;46;21094;-72
2024/01/21 05:05:50;;;;;;;6.90;4.60;;;2.90;56.10;;;4.37;41.50;102021.75;3082867;46;20502;-72
2024/01/21 05:08:20;;;;;;;6.67;4.53;;;2.90;56.20;;;4.42;41.30;102009.22;3082451;46;20459;-72
2024/01/21 05:10:48;;;;;;;7.37;4.67;;;2.90;56.30;;;4.44;40.99;102011.72;3082819;46;20553;-72
2024/01/21 05:13:17;;;;;;;6.27;4.17;;;2.90;56.10;;;4.44;40.92;102007.38;3082872;46;20447;-71
2024/01/21 05:15:46;;;;;;;4.97;4.10;;;3.00;55.90;;;4.43;40.87;101994.41;3082872;46;20458;-72
2024/01/21 05:18:14;;;;;;;7.00;4.67;;;3.00;55.80;;;4.45;40.96;101980.34;3082172;46;21030;-72
2024/01/21 05:20:43;;;;;;;10.43;4.23;;;3.00;55.80;;;4.46;40.92;101973.38;3082613;46;21091;-73
2024/01/21 05:23:12;;;;;;;7.30;4.23;;;3.00;55.60;;;4.49;40.66;101973.16;3082560;46;20448;-72
2024/01/21 05:25:40;;;;;;;7.50;4.63;;;3.00;55.70;;;4.52;40.59;101967.72;3082715;46;20438;-73
2024/01/21 05:28:08;;;;;;;10.20;4.00;;;3.00;55.60;;;4.54;40.80;101968.47;3081988;46;20510;-72
2024/01/21 05:30:37;;;;;;;6.93;4.07;;;3.00;55.40;;;4.55;40.36;101957.09;3082552;46;20509;-72
2024/01/21 05:33:05;;;;;;;5.33;4.07;;;3.10;55.30;;;4.56;40.35;101948.34;3082470;46;20438;-72
2024/01/21 05:35:33;;;;;;;6.10;4.07;;;3.10;55.10;;;4.57;40.11;101944.78;3082407;46;20439;-72
2024/01/21 05:38:02;;;;;;;5.50;4.20;;;3.10;55.10;;;4.60;40.56;101939.38;3081994;46;21134;-72
2024/01/21 05:40:30;;;;;;;7.77;4.43;;;3.10;55.10;;;4.63;40.33;101936.56;3082123;46;20463;-73
2024/01/21 05:43:00;;;;;;;6.53;4.00;;;3.10;55.10;;;4.66;40.28;101931.94;3082576;46;20427;-72
2024/01/21 05:45:29;;;;;;;6.80;4.07;;;3.10;54.90;;;4.63;40.07;101926.13;3083170;46;20446;-72
2024/01/21 05:47:57;;;;;;;6.10;4.33;;;3.10;54.30;;;4.66;40.23;101923.28;3082225;46;20523;-72
2024/01/21 05:50:26;;;;;;;6.57;4.40;;;3.20;54.60;;;4.67;39.92;101924.97;3082461;46;20572;-72
2024/01/21 05:52:54;;;;;;;6.17;4.23;;;3.20;54.40;;;4.66;39.83;101912.84;3082292;46;20439;-72
2024/01/21 05:55:22;;;;;;;7.00;4.53;;;3.20;54.10;;;4.71;40.28;101908.16;3082271;46;20434;-72
2024/01/21 05:57:51;;;;;;;7.33;4.37;;;3.20;54.60;;;4.71;40.01;101911.59;3081688;46;20439;-72
2024/01/21 06:00:20;;;;;;;5.87;4.47;;;3.20;54.10;;;4.72;39.84;101908.06;3082284;46;20480;-72
2024/01/21 06:02:48;;;;;;;6.23;4.70;;;3.20;54.10;;;4.71;39.66;101911.59;3082219;46;20583;-73
2024/01/21 06:05:17;;;;;;;6.53;4.43;;;3.30;53.80;;;4.71;39.43;101901.16;3082380;46;20427;-72
2024/01/21 06:07:45;;;;;;;8.70;4.87;;;3.30;53.70;;;4.76;39.49;101898.22;3081567;46;20553;-72
2024/01/21 06:10:13;;;;;;;9.90;5.00;;;3.30;53.70;;;4.79;39.87;101892.81;3082448;46;20466;-72
2024/01/21 06:12:42;;;;;;;7.20;4.93;;;3.30;54.00;;;4.81;39.73;101885.72;3082124;46;20980;-72
2024/01/21 06:15:12;;;;;;;6.57;4.20;;;3.30;53.90;;;4.84;39.56;101879.44;3082187;46;21107;-72
2024/01/21 06:17:40;;;;;;;6.87;4.67;;;3.30;53.90;;;4.84;39.33;101875.06;3081695;46;20460;-74
2024/01/21 06:20:10;;;;;;;6.73;4.20;;;3.30;53.50;;;4.88;39.77;101863.47;3081905;46;20624;-72
2024/01/21 06:22:38;;;;;;;7.83;5.20;;;3.30;53.80;;;4.82;38.98;101850.03;3082106;46;20512;-72
2024/01/21 06:25:07;;;;;;;6.97;4.40;;;3.30;52.80;;;4.86;39.53;101847.09;3082045;46;21006;-72
2024/01/21 06:27:35;;;;;;;7.33;4.80;;;3.30;53.30;;;4.91;39.16;101855.44;3081661;46;20459;-72
2024/01/21 06:30:14;;;;;;;7.20;4.00;;;3.40;53.20;;;4.90;39.15;101838.09;3082192;46;21018;-72
2024/01/21 06:32:43;;;;;;;5.63;4.13;;;3.40;53.10;;;4.92;38.50;101846.66;3081905;46;21065;-72
2024/01/21 06:35:27;;;;;;;9.27;4.87;;;3.40;52.70;;;4.97;39.20;101839.31;3082069;46;20526;-72
2024/01/21 06:37:55;;;;;;;7.50;5.23;;;3.40;52.80;;;4.98;38.58;101841.00;3081334;46;20557;-72
2024/01/21 06:40:23;;;;;;;8.20;4.77;;;3.40;52.30;;;5.01;38.68;101842.56;3080002;46;20442;-71
2024/01/21 06:42:52;;;;;;;6.93;4.23;;;3.50;52.70;;;5.00;38.60;101823.47;3081869;46;20431;-72
2024/01/21 06:45:20;;;;;;;5.90;3.83;;;3.50;52.20;;;5.00;38.16;101810.41;3081683;46;20452;-72
2024/01/21 06:47:49;;;;;;;6.83;4.30;;;3.50;51.80;;;5.01;38.44;101817.31;3081421;46;20530;-73
2024/01/21 06:50:21;;;;;;;6.13;4.23;;;3.50;51.90;;;4.99;38.21;101811.34;3082057;46;20443;-72
2024/01/21 06:52:49;;;;;;;6.93;4.60;;;3.50;51.80;;;5.00;38.73;101807.81;3081758;46;20463;-72
2024/01/21 06:55:17;;;;;;;6.63;4.30;;;3.50;52.20;;;5.00;38.33;101805.19;3081935;46;20635;-72
2024/01/21 06:57:46;;;;;;;6.07;4.10;;;3.50;51.90;;;5.00;38.07;101805.19;3080917;46;20463;-72
2024/01/21 07:00:15;;;;;;;6.90;4.13;;;3.50;51.50;;;4.98;38.06;101808.84;3081484;46;20442;-72
2024/01/21 07:02:44;;;;;;;6.87;4.10;;;3.50;51.10;;;4.93;38.02;101801.38;3081880;46;20530;-72
2024/01/21 07:05:12;;;;;;;5.17;3.67;;;3.50;50.60;;;4.90;37.46;101800.78;3081411;46;21038;-72
2024/01/21 07:07:40;;;;;;;5.17;3.67;;;3.50;50.10;;;4.83;37.36;101800.38;3081154;46;20446;-72
2024/01/21 07:10:10;;;;;;;7.73;4.27;;;3.50;50.30;;;4.85;37.43;101798.47;3081580;46;20520;-72
2024/01/21 07:12:39;;;;;;;6.47;4.20;;;3.50;50.00;;;4.90;37.92;101788.56;3080567;46;20458;-72
2024/01/21 07:15:08;;;;;;;5.93;4.23;;;3.50;50.50;;;4.93;37.92;101795.31;3081503;46;20435;-72
2024/01/21 07:17:37;;;;;;;5.57;4.17;;;3.50;50.20;;;4.93;37.64;101790.94;3081082;46;20937;-72
2024/01/21 07:20:06;;;;;;;5.40;3.93;;;3.50;50.00;;;4.95;37.63;101799.47;3081484;46;20996;-72
2024/01/21 07:22:35;;;;;;;4.43;3.40;;;3.50;49.90;;;4.92;37.23;101794.47;3081130;46;20458;-72
2024/01/21 07:25:04;;;;;;;7.37;4.13;;;3.50;49.70;;;4.96;37.82;101793.34;3081337;46;20463;-72
2024/01/21 07:27:34;;;;;;;7.33;4.20;;;3.50;49.90;;;4.96;37.46;101780.28;3080795;46;20599;-72
2024/01/21 07:30:03;;;;;;;6.47;3.63;;;3.60;49.70;;;4.99;37.44;101774.81;3081469;46;20463;-72
2024/01/21 07:32:32;;;;;;;5.13;3.80;;;3.60;49.80;;;5.04;37.40;101767.50;3081610;46;20544;-72
2024/01/21 07:35:00;;;;;;;4.83;3.23;;;3.60;50.10;;;5.07;37.17;101772.50;3081265;46;20446;-72
2024/01/21 07:37:29;;;;;;;6.27;3.30;;;3.60;49.90;;;5.00;36.86;101768.69;3080901;46;21052;-72
2024/01/21 07:39:57;;;;;;;5.13;3.73;;;3.60;49.20;;;5.07;37.38;101751.63;3081161;46;20434;-72
2024/01/21 07:42:25;;;;;;;6.30;4.07;;;3.60;50.40;;;5.14;37.64;101742.41;3080812;46;20575;-72
2024/01/21 07:44:54;;;;;;;5.43;3.63;;;3.70;50.20;;;5.17;37.30;101742.19;3080848;46;20501;-72
2024/01/21 07:47:22;;;;;;;5.67;3.60;;;3.70;49.80;;;5.20;37.17;101726.28;3080535;46;20496;-72
2024/01/21 07:49:51;;;;;;;4.90;3.40;;;3.70;49.30;;;5.22;36.79;101734.84;3080741;46;20438;-72
2024/01/21 07:52:20;;;;;;;4.40;2.90;;;3.70;49.20;;;5.23;36.79;101741.69;3082550;46;21026;-72
2024/01/21 07:54:48;;;;;;;6.30;3.07;;;3.70;48.50;;;5.28;36.68;101723.94;3083285;46;20466;-72
2024/01/21 07:57:17;;;;;;;5.10;3.50;;;3.80;48.60;;;5.34;36.59;101686.94;3082573;46;20525;-72
2024/01/21 07:59:45;;;;;;;6.10;3.60;;;3.80;48.60;;;5.37;36.25;101694.50;3083043;46;20422;-72
2024/01/21 08:02:13;;;;;;;4.97;3.30;;;3.80;48.50;;;5.40;36.55;101758.69;3082950;46;20484;-72
2024/01/21 08:04:42;;;;;;;4.57;3.60;;;3.90;48.50;;;5.37;36.07;101749.31;3083548;46;20508;-72
2024/01/21 08:07:10;;;;;;;4.03;3.20;;;3.90;47.60;;;5.36;35.65;101752.91;3083146;46;20463;-72
2024/01/21 08:09:39;;;;;;;4.90;3.20;;;3.90;47.00;;;5.33;35.63;101747.91;3083318;46;20526;-71
2024/01/21 08:12:07;;;;;;;4.53;3.23;;;4.00;46.80;;;5.35;35.33;101739.94;3083402;46;20434;-71
2024/01/21 08:14:36;;;;;;;5.13;3.00;;;4.00;46.40;;;5.34;34.94;101746.97;3082983;46;20531;-71
2024/01/21 08:17:04;;;;;;;4.70;3.07;;;4.10;46.00;;;5.35;35.32;101743.38;3082771;46;21014;-71
2024/01/21 08:19:37;;;;;;;3.63;2.60;;;4.10;45.60;;;5.36;35.42;101742.47;3083165;46;20521;-72
2024/01/21 08:22:10;;;;;;;4.73;3.03;;;4.20;45.60;;;5.48;35.16;101735.47;3083058;46;20533;-72
2024/01/21 08:24:39;;;;;;;6.07;3.40;;;4.20;45.20;;;5.55;34.63;101756.72;3083223;46;20510;-73
2024/01/21 08:27:07;;;;;;;4.30;2.90;;;4.30;45.00;;;5.62;34.91;101734.41;3082708;46;20514;-71
2024/01/21 08:29:39;;;;;;;3.00;2.53;;;4.30;45.10;;;5.70;34.30;101755.53;3082916;46;20436;-72
2024/01/21 08:32:08;;;;;;;4.07;3.00;;;4.40;44.90;;;5.80;34.54;101756.50;3083077;46;20462;-72
2024/01/21 08:34:36;;;;;;;4.37;3.17;;;4.40;44.80;;;5.86;34.44;101745.59;3082906;46;20434;-72
2024/01/21 08:37:05;;;;;;;3.40;2.67;;;4.50;44.70;;;5.84;34.52;101737.03;3082797;46;20523;-72
2024/01/21 08:39:33;;;;;;;4.20;3.13;;;4.50;44.50;;;5.80;33.86;101710.28;3082975;46;20462;-72
2024/01/21 08:42:05;;;;;;;3.93;2.90;;;4.60;43.90;;;5.81;34.39;101703.31;3082739;46;20484;-72
2024/01/21 08:44:33;;;;;;;4.73;2.87;;;4.60;44.10;;;5.81;34.01;101695.47;3082698;46;20574;-72
2024/01/21 08:47:02;;;;;;;3.37;2.50;;;4.60;43.60;;;5.85;33.85;101676.84;3082772;46;20521;-72
2024/01/21 08:49:31;;;;;;;3.80;2.80;;;4.60;43.50;;;5.84;34.21;101690.00;3082819;46;20445;-72
2024/01/21 08:51:59;;;;;;;5.83;2.70;;;4.70;43.50;;;5.81;34.13;101678.03;3082712;46;20434;-72
2024/01/21 08:54:28;;;;;;;4.03;2.77;;;4.70;43.30;;;5.95;34.16;101685.63;3082689;46;20520;-72
2024/01/21 08:56:56;;;;;;;4.67;2.97;;;4.80;43.40;;;5.95;33.83;101697.84;3081792;46;20472;-73
2024/01/21 08:59:25;;;;;;;3.23;2.80;;;4.80;43.10;;;5.99;34.04;101699.28;3082715;46;20445;-72
2024/01/21 09:01:53;;;;;;;5.00;2.80;;;4.80;43.30;;;6.03;34.00;101700.69;3082818;46;20930;-73
2024/01/21 09:04:22;;;;;;;3.47;2.83;;;4.80;43.40;;;6.01;33.93;101702.63;3082032;46;20500;-72
2024/01/21 09:06:50;;;;;;;4.63;2.60;;;4.90;43.50;;;6.09;34.29;101721.09;3082482;46;20496;-72
2024/01/21 09:09:19;;;;;;;4.13;2.37;;;4.90;43.70;;;6.18;34.38;101720.38;3082736;46;20442;-72
2024/01/21 09:11:47;;;;;;;4.33;2.53;;;4.90;43.80;;;6.18;33.93;101698.66;3082573;46;20578;-72
2024/01/21 09:14:16;;;;;;;4.47;3.00;;;4.90;43.50;;;6.27;34.14;101729.28;3082633;46;20437;-72
2024/01/21 09:16:44;;;;;;;5.77;2.90;;;5.00;43.90;;;6.32;34.13;101748.88;3082108;46;20433;-73
2024/01/21 09:19:14;;;;;;;5.13;2.83;;;5.00;43.80;;;6.36;34.03;101716.31;3082622;46;20533;-72
2024/01/21 09:21:43;;;;;;;6.43;2.60;;;5.00;43.60;;;6.39;34.14;101733.53;3082811;46;20471;-72
2024/01/21 09:24:14;;;;;;;3.50;2.50;;;5.00;43.70;;;6.40;34.32;101732.56;3082291;46;21018;-72
2024/01/21 09:26:42;;;;;;;3.63;2.70;;;5.10;44.10;;;6.47;34.17;101729.34;3082100;46;21061;-72
2024/01/21 09:29:11;;;;;;;3.77;2.47;;;5.10;44.20;;;6.44;34.13;101728.78;3081934;46;20449;-72
2024/01/21 09:31:39;;;;;;;6.47;2.57;;;5.10;44.00;;;6.48;34.40;101744.09;3081951;46;20433;-72
2024/01/21 09:34:08;;;;;;;5.90;2.37;;;5.20;44.30;;;6.52;34.40;101755.94;3082478;46;20469;-72
2024/01/21 09:36:38;;;;;;;3.87;2.70;;;5.20;44.40;;;6.61;34.61;101749.97;3082107;46;20451;-72
2024/01/21 09:39:06;;;;;;;3.67;2.50;;;5.20;44.70;;;6.62;34.37;101741.19;3082101;46;20467;-72
2024/01/21 09:41:51;;;;;;;6.00;2.50;;;5.30;44.60;;;6.59;34.44;101745.81;3082291;46;20578;-72
2024/01/21 09:44:26;;;;;;;5.23;2.40;;;5.30;44.60;;;6.67;34.69;101753.88;3082191;46;20455;-72
2024/01/21 09:46:59;;;;;;;4.17;3.07;;;5.30;44.90;;;6.74;34.27;101739.34;3082227;46;20463;-72
2024/01/21 09:49:28;;;;;;;2.90;2.10;;;5.30;44.80;;;6.78;34.39;101736.34;3082087;46;20431;-72
2024/01/21 09:51:56;;;;;;;3.47;2.47;;;5.40;44.70;;;6.83;34.31;101715.88;3082159;46;20471;-73
2024/01/21 09:54:25;;;;;;;3.63;2.80;;;5.40;44.50;;;6.81;34.17;101704.72;3082578;46;20475;-72
2024/01/21 09:56:54;;;;;;;3.63;2.87;;;5.50;44.10;;;6.87;34.06;101692.91;3081710;46;20431;-72
2024/01/21 09:59:22;;;;;;;5.00;2.30;;;5.50;43.90;;;6.96;34.23;101707.03;3082298;46;20451;-72
2024/01/21 10:01:51;;;;;;;5.43;3.00;;;5.60;44.20;;;6.93;34.16;101702.03;3081723;46;21091;-72
2024/01/21 10:04:20;;;;;;;4.07;2.77;;;5.60;44.00;;;7.00;33.87;101705.81;3081842;46;20584;-72
2024/01/21 10:06:51;;;;;;;3.93;2.77;;;5.60;44.10;;;6.99;34.21;101706.78;3082070;46;20945;-72
2024/01/21 10:09:22;;;;;;;4.33;2.53;;;5.60;44.00;;;7.03;34.02;101708.19;3082144;46;21004;-72
2024/01/21 10:11:57;;;;;;;4.60;3.10;;;5.70;44.00;;;7.07;34.00;101710.41;3082283;46;20457;-72
2024/01/21 10:14:31;;;;;;;4.63;2.70;;;5.70;44.10;;;7.19;34.26;101692.84;3081523;46;20432;-73
2024/01/21 10:17:01;;;;;;;5.53;3.13;;;5.80;44.40;;;7.31;34.23;101702.28;3081779;46;20438;-72
2024/01/21 10:19:33;;;;;;;3.93;2.60;;;5.80;44.30;;;7.41;33.52;101697.94;3081851;46;21121;-72
2024/01/21 10:22:16;;;;;;;3.37;2.43;;;5.90;44.10;;;7.59;33.73;101706.84;3082319;46;20991;-72
2024/01/21 10:24:48;;;;;;;4.07;3.10;;;6.00;44.40;;;7.71;33.69;101700.53;3081710;46;20456;-72
2024/01/21 10:27:17;;;;;;;3.73;2.70;;;6.10;44.90;;;7.81;33.73;101700.56;3081671;46;20444;-72
2024/01/21 10:29:46;;;;;;;3.70;2.57;;;6.20;44.10;;;8.03;33.31;101700.38;3081894;46;21130;-72
2024/01/21 10:32:17;;;;;;;4.03;2.60;;;6.30;44.40;;;8.20;33.43;101713.66;3081753;46;20477;-72